Crown Of Scandinavia — OXRA6 — position and weather

sailwx.info

Track history (hours):
 
Tides and Currents Weather Stations Pressure Air Temp Water Temp Dewpoint Dewpoint Depression Visibility Wind Speed Wind Dir Waves Ship Positions

Crown Of Scandinavia

Last reported at 2017-Jan-21 03:33 UTC. Time now 2017-Jan-21 04:27 UTC.
Position N 58°43' E 010°47'.

Length 171 m; draft 6.3 m.

Type: Ship. MMSI: 219592000.

Date/timePositionNaut miles runAvg speedWind from/ knotsBaromVisibWave heightAir tempDewpointWater temp
2017-Jan-21 03:33N 58°43' E 010°47'1716.6
2017-Jan-21 02:33N 58°27' E 010°55'1817.6
2017-Jan-21 01:33N 58°10' E 011°05'1817.6
2017-Jan-21 00:33N 57°53' E 011°15'1716.6
2017-Jan-20 23:33N 57°37' E 011°24'1616.4
2017-Jan-20 22:33N 57°21' E 011°32'1716.6
2017-Jan-20 21:33N 57°06' E 011°43'1816.7
2017-Jan-20 20:28N 56°49' E 011°57'3516.5
2017-Jan-20 18:19N 56°17' E 012°23'1316.5
2017-Jan-20 17:33N 56°06' E 012°35'1615.9
2017-Jan-20 16:33N 55°51' E 012°45'1010.4
2017-Jan-20 15:34N 55°42' E 012°36'0 0.0
2017-Jan-20 14:32N 55°42' E 012°36'0 0.0
2017-Jan-20 13:32N 55°42' E 012°36'0 0.0
2017-Jan-20 12:32N 55°42' E 012°36'0 0.0
2017-Jan-20 11:32N 55°42' E 012°36'0 0.0
2017-Jan-20 10:32N 55°42' E 012°36'0 0.0
2017-Jan-20 09:32N 55°42' E 012°36'0 0.3
2017-Jan-20 08:32N 55°42' E 012°36'1212.5
2017-Jan-20 07:34N 55°54' E 012°39'1414.3
2017-Jan-20 06:34N 56°08' E 012°30'6516.3
2017-Jan-20 02:34N 57°10' E 011°54'1716.6
2017-Jan-20 01:34N 57°24' E 011°39'1716.7
2017-Jan-20 00:33N 57°37' E 011°18'1717.1
2017-Jan-19 23:34N 57°52' E 011°04'1716.7
2017-Jan-19 22:34N 58°08' E 010°54'1616.3
2017-Jan-19 21:34N 58°23' E 010°43'1616.1
2017-Jan-19 20:33N 58°39' E 010°36'1616.2
2017-Jan-19 19:34N 58°55' E 010°35'1716.6
2017-Jan-19 18:34N 59°12' E 010°38'1716.6
2017-Jan-19 17:34N 59°28' E 010°34'1514.8
2017-Jan-19 16:33N 59°43' E 010°35'1212.4
2017-Jan-19 15:33N 59°54' E 010°45'0 0.0
2017-Jan-19 08:32N 59°54' E 010°45'1212.4
2017-Jan-19 07:34N 59°43' E 010°35'1414.0
2017-Jan-19 06:34N 59°29' E 010°35'1616.2
2017-Jan-19 05:34N 59°13' E 010°39'1616.4
2017-Jan-19 04:34N 58°56' E 010°44'1716.6
2017-Jan-19 03:33N 58°40' E 010°49'1716.6
2017-Jan-19 02:34N 58°24' E 010°55'1716.7
2017-Jan-19 01:33N 58°08' E 011°04'1716.6
2017-Jan-19 00:33N 57°52' E 011°14'1616.0
2017-Jan-18 23:33N 57°37' E 011°23'1615.9
2017-Jan-18 22:34N 57°22' E 011°32'1716.2
2017-Jan-18 21:31N 57°06' E 011°41'1516.0
2017-Jan-18 20:33N 56°52' E 011°54'2215.8
2017-Jan-18 19:08N 56°32' E 012°12'1116.1
2017-Jan-18 18:28N 56°22' E 012°20'1617.5
2017-Jan-18 17:34N 56°07' E 012°32'1616.4
2017-Jan-18 16:34N 55°53' E 012°45'1211.5
2017-Jan-18 15:34N 55°42' E 012°36'0 0.0
2017-Jan-18 14:32N 55°42' E 012°36'0 0.0
2017-Jan-18 13:32N 55°42' E 012°36'0 0.0
2017-Jan-18 12:32N 55°42' E 012°36'0 0.0
2017-Jan-18 11:32N 55°42' E 012°36'0 0.0
2017-Jan-18 10:32N 55°42' E 012°36'0 0.0
2017-Jan-18 09:32N 55°42' E 012°36'0 0.4
2017-Jan-18 08:34N 55°42' E 012°36'1313.1
2017-Jan-18 07:33N 55°55' E 012°39'1413.8
2017-Jan-18 06:33N 56°08' E 012°29'1716.8
2017-Jan-18 05:33N 56°21' E 012°09'5016.5
2017-Jan-18 02:34N 57°07' E 011°37'1716.9
2017-Jan-18 01:33N 57°23' E 011°25'1717.0
2017-Jan-18 00:33N 57°38' E 011°11'1717.0
2017-Jan-17 23:33N 57°54' E 011°03'1716.5
2017-Jan-17 22:33N 58°10' E 010°52'1916.4
2017-Jan-17 21:23N 58°28' E 010°39'1316.0
2017-Jan-17 20:33N 58°41' E 010°36'1615.7
2017-Jan-17 19:33N 58°57' E 010°36'1616.1
2017-Jan-17 18:33N 59°13' E 010°37'1716.8
2017-Jan-17 17:33N 59°29' E 010°34'1414.1
2017-Jan-17 16:34N 59°44' E 010°34'12 1.5
2017-Jan-17 08:33N 59°54' E 010°45'1312.5
2017-Jan-17 07:33N 59°42' E 010°36'1413.8
2017-Jan-17 06:33N 59°29' E 010°35'1615.7
2017-Jan-17 05:34N 59°13' E 010°38'1515.3
2017-Jan-17 04:34N 58°58' E 010°43'1616.0
2017-Jan-17 03:34N 58°42' E 010°48'1616.2
2017-Jan-17 02:33N 58°26' E 010°55'1716.9
2017-Jan-17 01:32N 58°10' E 011°07'1616.3
2017-Jan-17 00:33N 57°55' E 011°17'1716.6
2017-Jan-16 23:34N 57°40' E 011°26'1514.7
2017-Jan-16 22:33N 57°26' E 011°38'1716.4
2017-Jan-16 21:29N 57°11' E 011°54'5516.0
2017-Jan-16 18:04N 56°19' E 012°23'917.0
2017-Jan-16 17:33N 56°11' E 012°29'1716.7
2017-Jan-16 16:33N 55°56' E 012°43'1414.2
2017-Jan-16 15:33N 55°42' E 012°37'1 0.6
2017-Jan-16 14:30N 55°42' E 012°36'0 0.0
2017-Jan-16 13:33N 55°42' E 012°36'0 0.0
2017-Jan-16 12:33N 55°42' E 012°36'0 0.0
2017-Jan-16 11:33N 55°42' E 012°36'0 0.0
2017-Jan-16 10:33N 55°42' E 012°36'0 0.0
2017-Jan-16 09:33N 55°42' E 012°36'0 0.4
2017-Jan-16 08:34N 55°42' E 012°36'1212.2
2017-Jan-16 07:33N 55°55' E 012°39'1413.9
2017-Jan-16 06:33N 56°08' E 012°31'1615.6
2017-Jan-16 05:33N 56°20' E 012°13'5016.5
2017-Jan-16 02:33N 57°05' E 011°38'1716.9
2017-Jan-16 01:33N 57°21' E 011°28'1716.8
2017-Jan-16 00:33N 57°37' E 011°15'1716.7
2017-Jan-15 23:33N 57°52' E 011°04'1716.4
2017-Jan-15 22:33N 58°08' E 010°53'1615.8
2017-Jan-15 21:33N 58°23' E 010°43'1615.6
2017-Jan-15 20:33N 58°38' E 010°36'1615.7
2017-Jan-15 19:33N 58°53' E 010°35'1716.6
2017-Jan-15 18:33N 59°10' E 010°38'1717.5
2017-Jan-15 17:33N 59°27' E 010°33'1514.8
2017-Jan-15 16:33N 59°42' E 010°35'1312.8
2017-Jan-15 15:33N 59°54' E 010°44'0 0.0
2017-Jan-15 08:34N 59°54' E 010°44'1313.4
2017-Jan-15 07:34N 59°41' E 010°36'1414.2
2017-Jan-15 06:33N 59°27' E 010°34'1514.6
2017-Jan-15 05:33N 59°13' E 010°38'1515.1
2017-Jan-15 04:33N 58°58' E 010°42'1615.5
2017-Jan-15 03:33N 58°42' E 010°45'1615.9
2017-Jan-15 02:33N 58°27' E 010°55'1616.2
2017-Jan-15 01:33N 58°12' E 011°06'1616.4
2017-Jan-15 00:33N 57°57' E 011°16'1616.2
2017-Jan-14 23:33N 57°41' E 011°26'1717.3
2017-Jan-14 22:33N 57°25' E 011°39'6916.6
2017-Jan-14 18:23N 56°20' E 012°23'1416.6
2017-Jan-14 17:33N 56°08' E 012°32'1616.2
2017-Jan-14 16:34N 55°53' E 012°46'1312.6
2017-Jan-14 15:33N 55°42' E 012°36'0 0.0
2017-Jan-14 14:33N 55°42' E 012°36'0 0.0
2017-Jan-14 13:33N 55°42' E 012°36'0 0.0
2017-Jan-14 12:33N 55°42' E 012°36'0 0.0
2017-Jan-14 11:33N 55°42' E 012°36'0 0.0
2017-Jan-14 10:33N 55°42' E 012°36'0 0.0
2017-Jan-14 09:33N 55°42' E 012°36'1 1.0
2017-Jan-14 08:33N 55°43' E 012°37'1414.3
2017-Jan-14 07:34N 55°57' E 012°40'1514.8
2017-Jan-14 06:34N 56°10' E 012°28'1615.5
2017-Jan-14 05:33N 56°25' E 012°19'9916.6
2017-Jan-13 23:33N 57°56' E 011°08'1615.9
2017-Jan-13 22:32N 58°11' E 010°54'1716.1
2017-Jan-13 21:28N 58°26' E 010°40'1415.7
2017-Jan-13 20:34N 58°40' E 010°36'1515.5
2017-Jan-13 19:34N 58°56' E 010°36'1616.2
2017-Jan-13 18:34N 59°12' E 010°38'1716.8
2017-Jan-13 17:34N 59°29' E 010°34'1413.8
2017-Jan-13 16:33N 59°43' E 010°35'1312.6
2017-Jan-13 15:33N 59°54' E 010°45'0 0.0
2017-Jan-13 08:33N 59°54' E 010°45'1212.1
2017-Jan-13 07:34N 59°43' E 010°35'1414.2
2017-Jan-13 06:33N 59°29' E 010°35'1716.6
2017-Jan-13 05:34N 59°12' E 010°38'1717.2
2017-Jan-13 04:34N 58°55' E 010°43'1818.2
2017-Jan-13 03:34N 58°37' E 010°49'1818.3
2017-Jan-13 02:33N 58°20' E 010°60'1818.0
2017-Jan-13 01:33N 58°03' E 011°09'1818.3
2017-Jan-13 00:33N 57°45' E 011°19'1817.6
2017-Jan-12 23:33N 57°28' E 011°28'1817.6
2017-Jan-12 22:34N 57°11' E 011°38'6017.2
2017-Jan-12 19:05N 56°17' E 012°24'916.7
2017-Jan-12 18:34N 56°09' E 012°30'1414.0
2017-Jan-12 17:34N 55°57' E 012°43'1413.8
2017-Jan-12 16:33N 55°43' E 012°39'2 2.0
2017-Jan-12 15:33N 55°42' E 012°36'0 0.0
2017-Jan-12 14:34N 55°42' E 012°36'0 0.0
2017-Jan-12 13:34N 55°42' E 012°36'0 0.0
2017-Jan-12 12:34N 55°42' E 012°36'0 0.0
2017-Jan-12 11:34N 55°42' E 012°36'0 0.0
2017-Jan-12 10:34N 55°42' E 012°36'0 0.0
2017-Jan-12 09:34N 55°42' E 012°36'0 0.0
2017-Jan-12 08:34N 55°42' E 012°36'0 0.0
2017-Jan-12 07:34N 55°42' E 012°36'0 0.0
2017-Jan-12 06:34N 55°42' E 012°36'0 0.0
2017-Jan-12 05:34N 55°42' E 012°36'0 0.0
2017-Jan-12 04:34N 55°42' E 012°36'0 0.0
2017-Jan-12 03:34N 55°42' E 012°36'0 0.0
2017-Jan-12 02:34N 55°42' E 012°36'0 0.0
2017-Jan-12 01:33N 55°42' E 012°36'0 0.0
2017-Jan-12 00:34N 55°42' E 012°36'0 0.0
2017-Jan-11 23:34N 55°42' E 012°36'0 0.0
2017-Jan-11 22:34N 55°42' E 012°36'0 0.0
2017-Jan-11 21:34N 55°42' E 012°36'0 0.0
2017-Jan-11 20:34N 55°42' E 012°36'0 0.0
2017-Jan-11 19:34N 55°42' E 012°36'0 0.0
2017-Jan-11 18:34N 55°42' E 012°36'0 0.0
2017-Jan-11 17:34N 55°42' E 012°36'0 0.0
2017-Jan-11 16:33N 55°42' E 012°36'0 0.0
2017-Jan-11 15:34N 55°42' E 012°36'0 0.0
2017-Jan-11 14:34N 55°42' E 012°36'0 0.0
2017-Jan-11 13:34N 55°42' E 012°36'0 0.0
2017-Jan-11 12:34N 55°42' E 012°36'0 0.0
2017-Jan-11 11:34N 55°42' E 012°36'0 0.0
2017-Jan-11 10:33N 55°42' E 012°36'0 0.0
2017-Jan-11 09:34N 55°42' E 012°36'0 0.0
2017-Jan-11 08:34N 55°42' E 012°36'0 0.0
2017-Jan-11 07:34N 55°42' E 012°36'3 3.3
2017-Jan-11 06:33N 55°44' E 012°40'7 7.2
2017-Jan-11 05:33N 55°52' E 012°41'1313.3
2017-Jan-11 04:34N 56°05' E 012°36'1515.4
2017-Jan-11 03:34N 56°12' E 012°12'  
Track history (hours):
 
Tides and Currents Weather Stations Pressure Air Temp Water Temp Dewpoint Dewpoint Depression Visibility Wind Speed Wind Dir Waves Ship Positions

Crown Of Scandinavia

Last reported at 2017-Jan-21 03:33 UTC. Time now 2017-Jan-21 04:28 UTC.
Position N 58°43' E 010°47'.

Length 171 m; draft 6.3 m.

Type: Ship. MMSI: 219592000.

Date/timePositionNaut miles runAvg speedWind from/ knotsBaromVisibWave heightAir tempDewpointWater temp
2017-Jan-21 03:33N 58°43' E 010°47'1716.6
2017-Jan-21 02:33N 58°27' E 010°55'1817.6
2017-Jan-21 01:33N 58°10' E 011°05'1817.6
2017-Jan-21 00:33N 57°53' E 011°15'1716.6
2017-Jan-20 23:33N 57°37' E 011°24'1616.4
2017-Jan-20 22:33N 57°21' E 011°32'1716.6
2017-Jan-20 21:33N 57°06' E 011°43'1816.7
2017-Jan-20 20:28N 56°49' E 011°57'3516.5
2017-Jan-20 18:19N 56°17' E 012°23'1316.5
2017-Jan-20 17:33N 56°06' E 012°35'1615.9
2017-Jan-20 16:33N 55°51' E 012°45'1010.4
2017-Jan-20 15:34N 55°42' E 012°36'0 0.0
2017-Jan-20 14:32N 55°42' E 012°36'0 0.0
2017-Jan-20 13:32N 55°42' E 012°36'0 0.0
2017-Jan-20 12:32N 55°42' E 012°36'0 0.0
2017-Jan-20 11:32N 55°42' E 012°36'0 0.0
2017-Jan-20 10:32N 55°42' E 012°36'0 0.0
2017-Jan-20 09:32N 55°42' E 012°36'0 0.3
2017-Jan-20 08:32N 55°42' E 012°36'1212.5
2017-Jan-20 07:34N 55°54' E 012°39'1414.3
2017-Jan-20 06:34N 56°08' E 012°30'6516.3
2017-Jan-20 02:34N 57°10' E 011°54'1716.6
2017-Jan-20 01:34N 57°24' E 011°39'1716.7
2017-Jan-20 00:33N 57°37' E 011°18'1717.1
2017-Jan-19 23:34N 57°52' E 011°04'1716.7
2017-Jan-19 22:34N 58°08' E 010°54'1616.3
2017-Jan-19 21:34N 58°23' E 010°43'1616.1
2017-Jan-19 20:33N 58°39' E 010°36'1616.2
2017-Jan-19 19:34N 58°55' E 010°35'1716.6
2017-Jan-19 18:34N 59°12' E 010°38'1716.6
2017-Jan-19 17:34N 59°28' E 010°34'1514.8
2017-Jan-19 16:33N 59°43' E 010°35'1212.4
2017-Jan-19 15:33N 59°54' E 010°45'0 0.0
2017-Jan-19 08:32N 59°54' E 010°45'1212.4
2017-Jan-19 07:34N 59°43' E 010°35'1414.0
2017-Jan-19 06:34N 59°29' E 010°35'1616.2
2017-Jan-19 05:34N 59°13' E 010°39'1616.4
2017-Jan-19 04:34N 58°56' E 010°44'1716.6
2017-Jan-19 03:33N 58°40' E 010°49'1716.6
2017-Jan-19 02:34N 58°24' E 010°55'1716.7
2017-Jan-19 01:33N 58°08' E 011°04'1716.6
2017-Jan-19 00:33N 57°52' E 011°14'1616.0
2017-Jan-18 23:33N 57°37' E 011°23'1615.9
2017-Jan-18 22:34N 57°22' E 011°32'1716.2
2017-Jan-18 21:31N 57°06' E 011°41'1516.0
2017-Jan-18 20:33N 56°52' E 011°54'2215.8
2017-Jan-18 19:08N 56°32' E 012°12'1116.1
2017-Jan-18 18:28N 56°22' E 012°20'1617.5
2017-Jan-18 17:34N 56°07' E 012°32'1616.4
2017-Jan-18 16:34N 55°53' E 012°45'1211.5
2017-Jan-18 15:34N 55°42' E 012°36'0 0.0
2017-Jan-18 14:32N 55°42' E 012°36'0 0.0
2017-Jan-18 13:32N 55°42' E 012°36'0 0.0
2017-Jan-18 12:32N 55°42' E 012°36'0 0.0
2017-Jan-18 11:32N 55°42' E 012°36'0 0.0
2017-Jan-18 10:32N 55°42' E 012°36'0 0.0
2017-Jan-18 09:32N 55°42' E 012°36'0 0.4
2017-Jan-18 08:34N 55°42' E 012°36'1313.1
2017-Jan-18 07:33N 55°55' E 012°39'1413.8
2017-Jan-18 06:33N 56°08' E 012°29'1716.8
2017-Jan-18 05:33N 56°21' E 012°09'5016.5
2017-Jan-18 02:34N 57°07' E 011°37'1716.9
2017-Jan-18 01:33N 57°23' E 011°25'1717.0
2017-Jan-18 00:33N 57°38' E 011°11'1717.0
2017-Jan-17 23:33N 57°54' E 011°03'1716.5
2017-Jan-17 22:33N 58°10' E 010°52'1916.4
2017-Jan-17 21:23N 58°28' E 010°39'1316.0
2017-Jan-17 20:33N 58°41' E 010°36'1615.7
2017-Jan-17 19:33N 58°57' E 010°36'1616.1
2017-Jan-17 18:33N 59°13' E 010°37'1716.8
2017-Jan-17 17:33N 59°29' E 010°34'1414.1
2017-Jan-17 16:34N 59°44' E 010°34'12 1.5
2017-Jan-17 08:33N 59°54' E 010°45'1312.5
2017-Jan-17 07:33N 59°42' E 010°36'1413.8
2017-Jan-17 06:33N 59°29' E 010°35'1615.7
2017-Jan-17 05:34N 59°13' E 010°38'1515.3
2017-Jan-17 04:34N 58°58' E 010°43'1616.0
2017-Jan-17 03:34N 58°42' E 010°48'1616.2
2017-Jan-17 02:33N 58°26' E 010°55'1716.9
2017-Jan-17 01:32N 58°10' E 011°07'1616.3
2017-Jan-17 00:33N 57°55' E 011°17'1716.6
2017-Jan-16 23:34N 57°40' E 011°26'1514.7
2017-Jan-16 22:33N 57°26' E 011°38'1716.4
2017-Jan-16 21:29N 57°11' E 011°54'5516.0
2017-Jan-16 18:04N 56°19' E 012°23'917.0
2017-Jan-16 17:33N 56°11' E 012°29'1716.7
2017-Jan-16 16:33N 55°56' E 012°43'1414.2
2017-Jan-16 15:33N 55°42' E 012°37'1 0.6
2017-Jan-16 14:30N 55°42' E 012°36'0 0.0
2017-Jan-16 13:33N 55°42' E 012°36'0 0.0
2017-Jan-16 12:33N 55°42' E 012°36'0 0.0
2017-Jan-16 11:33N 55°42' E 012°36'0 0.0
2017-Jan-16 10:33N 55°42' E 012°36'0 0.0
2017-Jan-16 09:33N 55°42' E 012°36'0 0.4
2017-Jan-16 08:34N 55°42' E 012°36'1212.2
2017-Jan-16 07:33N 55°55' E 012°39'1413.9
2017-Jan-16 06:33N 56°08' E 012°31'1615.6
2017-Jan-16 05:33N 56°20' E 012°13'5016.5
2017-Jan-16 02:33N 57°05' E 011°38'1716.9
2017-Jan-16 01:33N 57°21' E 011°28'1716.8
2017-Jan-16 00:33N 57°37' E 011°15'1716.7
2017-Jan-15 23:33N 57°52' E 011°04'1716.4
2017-Jan-15 22:33N 58°08' E 010°53'1615.8
2017-Jan-15 21:33N 58°23' E 010°43'1615.6
2017-Jan-15 20:33N 58°38' E 010°36'1615.7
2017-Jan-15 19:33N 58°53' E 010°35'1716.6
2017-Jan-15 18:33N 59°10' E 010°38'1717.5
2017-Jan-15 17:33N 59°27' E 010°33'1514.8
2017-Jan-15 16:33N 59°42' E 010°35'1312.8
2017-Jan-15 15:33N 59°54' E 010°44'0 0.0
2017-Jan-15 08:34N 59°54' E 010°44'1313.4
2017-Jan-15 07:34N 59°41' E 010°36'1414.2
2017-Jan-15 06:33N 59°27' E 010°34'1514.6
2017-Jan-15 05:33N 59°13' E 010°38'1515.1
2017-Jan-15 04:33N 58°58' E 010°42'1615.5
2017-Jan-15 03:33N 58°42' E 010°45'1615.9
2017-Jan-15 02:33N 58°27' E 010°55'1616.2
2017-Jan-15 01:33N 58°12' E 011°06'1616.4
2017-Jan-15 00:33N 57°57' E 011°16'1616.2
2017-Jan-14 23:33N 57°41' E 011°26'1717.3
2017-Jan-14 22:33N 57°25' E 011°39'6916.6
2017-Jan-14 18:23N 56°20' E 012°23'1416.6
2017-Jan-14 17:33N 56°08' E 012°32'1616.2
2017-Jan-14 16:34N 55°53' E 012°46'1312.6
2017-Jan-14 15:33N 55°42' E 012°36'0 0.0
2017-Jan-14 14:33N 55°42' E 012°36'0 0.0
2017-Jan-14 13:33N 55°42' E 012°36'0 0.0
2017-Jan-14 12:33N 55°42' E 012°36'0 0.0
2017-Jan-14 11:33N 55°42' E 012°36'0 0.0
2017-Jan-14 10:33N 55°42' E 012°36'0 0.0
2017-Jan-14 09:33N 55°42' E 012°36'1 1.0
2017-Jan-14 08:33N 55°43' E 012°37'1414.3
2017-Jan-14 07:34N 55°57' E 012°40'1514.8
2017-Jan-14 06:34N 56°10' E 012°28'1615.5
2017-Jan-14 05:33N 56°25' E 012°19'9916.6
2017-Jan-13 23:33N 57°56' E 011°08'1615.9
2017-Jan-13 22:32N 58°11' E 010°54'1716.1
2017-Jan-13 21:28N 58°26' E 010°40'1415.7
2017-Jan-13 20:34N 58°40' E 010°36'1515.5
2017-Jan-13 19:34N 58°56' E 010°36'1616.2
2017-Jan-13 18:34N 59°12' E 010°38'1716.8
2017-Jan-13 17:34N 59°29' E 010°34'1413.8
2017-Jan-13 16:33N 59°43' E 010°35'1312.6
2017-Jan-13 15:33N 59°54' E 010°45'0 0.0
2017-Jan-13 08:33N 59°54' E 010°45'1212.1
2017-Jan-13 07:34N 59°43' E 010°35'1414.2
2017-Jan-13 06:33N 59°29' E 010°35'1716.6
2017-Jan-13 05:34N 59°12' E 010°38'1717.2
2017-Jan-13 04:34N 58°55' E 010°43'1818.2
2017-Jan-13 03:34N 58°37' E 010°49'1818.3
2017-Jan-13 02:33N 58°20' E 010°60'1818.0
2017-Jan-13 01:33N 58°03' E 011°09'1818.3
2017-Jan-13 00:33N 57°45' E 011°19'1817.6
2017-Jan-12 23:33N 57°28' E 011°28'1817.6
2017-Jan-12 22:34N 57°11' E 011°38'6017.2
2017-Jan-12 19:05N 56°17' E 012°24'916.7
2017-Jan-12 18:34N 56°09' E 012°30'1414.0
2017-Jan-12 17:34N 55°57' E 012°43'1413.8
2017-Jan-12 16:33N 55°43' E 012°39'2 2.0
2017-Jan-12 15:33N 55°42' E 012°36'0 0.0
2017-Jan-12 14:34N 55°42' E 012°36'0 0.0
2017-Jan-12 13:34N 55°42' E 012°36'0 0.0
2017-Jan-12 12:34N 55°42' E 012°36'0 0.0
2017-Jan-12 11:34N 55°42' E 012°36'0 0.0
2017-Jan-12 10:34N 55°42' E 012°36'0 0.0
2017-Jan-12 09:34N 55°42' E 012°36'0 0.0
2017-Jan-12 08:34N 55°42' E 012°36'0 0.0
2017-Jan-12 07:34N 55°42' E 012°36'0 0.0
2017-Jan-12 06:34N 55°42' E 012°36'0 0.0
2017-Jan-12 05:34N 55°42' E 012°36'0 0.0
2017-Jan-12 04:34N 55°42' E 012°36'0 0.0
2017-Jan-12 03:34N 55°42' E 012°36'0 0.0
2017-Jan-12 02:34N 55°42' E 012°36'0 0.0
2017-Jan-12 01:33N 55°42' E 012°36'0 0.0
2017-Jan-12 00:34N 55°42' E 012°36'0 0.0
2017-Jan-11 23:34N 55°42' E 012°36'0 0.0
2017-Jan-11 22:34N 55°42' E 012°36'0 0.0
2017-Jan-11 21:34N 55°42' E 012°36'0 0.0
2017-Jan-11 20:34N 55°42' E 012°36'0 0.0
2017-Jan-11 19:34N 55°42' E 012°36'0 0.0
2017-Jan-11 18:34N 55°42' E 012°36'0 0.0
2017-Jan-11 17:34N 55°42' E 012°36'0 0.0
2017-Jan-11 16:33N 55°42' E 012°36'0 0.0
2017-Jan-11 15:34N 55°42' E 012°36'0 0.0
2017-Jan-11 14:34N 55°42' E 012°36'0 0.0
2017-Jan-11 13:34N 55°42' E 012°36'0 0.0
2017-Jan-11 12:34N 55°42' E 012°36'0 0.0
2017-Jan-11 11:34N 55°42' E 012°36'0 0.0
2017-Jan-11 10:33N 55°42' E 012°36'0 0.0
2017-Jan-11 09:34N 55°42' E 012°36'0 0.0
2017-Jan-11 08:34N 55°42' E 012°36'0 0.0
2017-Jan-11 07:34N 55°42' E 012°36'3 3.3
2017-Jan-11 06:33N 55°44' E 012°40'7 7.2
2017-Jan-11 05:33N 55°52' E 012°41'1313.3
2017-Jan-11 04:34N 56°05' E 012°36'1515.4
2017-Jan-11 03:34N 56°12' E 012°12'  

Dump ship's entire track history